createdAt,value
2018-08-06T11:32:19.992Z,33.57
2018-08-06T11:37:41.811Z,33.65
2018-08-06T11:40:27.416Z,34.21
2018-08-06T11:43:06.572Z,34.10
2018-08-06T11:51:10.703Z,33.92
2018-08-06T11:53:53.965Z,33.95
2018-08-06T11:56:45.371Z,34.11
2018-08-06T12:02:14.599Z,34.11
2018-08-06T12:04:53.188Z,33.94
2018-08-06T12:10:25.130Z,33.52
2018-08-06T12:16:18.900Z,33.59
2018-08-06T12:36:11.954Z,33.38
2018-08-06T12:42:00.188Z,33.51
2018-08-06T12:44:53.949Z,33.58
2018-08-06T12:47:24.912Z,33.51
2018-08-06T12:49:55.239Z,33.53
2018-08-06T12:52:28.638Z,33.53
2018-08-06T12:55:00.602Z,33.66
2018-08-06T13:00:35.142Z,34.26
2018-08-06T13:03:06.998Z,34.53
2018-08-06T13:05:38.561Z,34.60
2018-08-06T13:08:15.525Z,34.38
2018-08-06T13:10:51.575Z,35.10
2018-08-06T13:13:29.044Z,35.30
2018-08-06T13:16:12.085Z,35.51
2018-08-06T13:18:48.986Z,36.57
2018-08-06T13:21:37.557Z,37.32
2018-08-06T13:29:44.732Z,39.13
2018-08-06T13:32:22.293Z,40.06
2018-08-06T13:34:56.708Z,40.45
2018-08-06T13:40:30.432Z,43.18
2018-08-06T13:43:02.138Z,43.56
2018-08-06T13:45:40.184Z,44.19
2018-08-06T13:56:08.425Z,44.53
2018-08-06T13:58:41.065Z,45.96
2018-08-06T14:01:59.660Z,45.41
2018-08-06T14:08:21.547Z,44.94
2018-08-06T14:10:55.589Z,44.83
2018-08-06T14:13:43.859Z,45.91
2018-08-06T14:16:16.910Z,45.23
2018-08-06T14:19:14.300Z,45.33
2018-08-06T14:21:59.752Z,45.50
2018-08-06T14:27:28.303Z,45.51
2018-08-06T14:30:05.552Z,46.34
2018-08-06T14:32:40.393Z,45.77
2018-08-06T14:35:17.705Z,45.17
2018-08-06T14:40:31.564Z,43.00
2018-08-06T14:48:52.669Z,44.00
2018-08-06T14:51:29.878Z,43.66
2018-08-06T14:54:15.937Z,43.71
2018-08-06T14:56:51.591Z,43.51
2018-08-06T14:59:30.088Z,43.46
2018-08-06T15:02:10.373Z,43.15
2018-08-06T15:04:41.563Z,42.75
2018-08-06T15:07:24.589Z,43.24
2018-08-06T15:09:55.205Z,43.07
2018-08-06T15:12:36.159Z,42.01
2018-08-06T15:15:09.754Z,41.07
2018-08-06T15:17:50.788Z,40.95
2018-08-06T15:20:22.618Z,40.34
2018-08-06T15:22:52.866Z,40.73
2018-08-06T15:25:24.781Z,41.43
2018-08-06T15:28:03.064Z,41.13
2018-08-06T15:30:37.494Z,41.20
2018-08-06T15:33:17.535Z,42.60
2018-08-06T15:35:49.520Z,42.74
2018-08-06T15:38:25.230Z,42.12
2018-08-06T15:41:07.069Z,41.60
2018-08-06T15:43:46.120Z,41.70
2018-08-06T15:46:19.319Z,42.62
2018-08-06T15:48:49.291Z,42.13
2018-08-06T15:51:29.781Z,42.12
2018-08-06T15:54:02.607Z,42.48
2018-08-06T15:56:34.476Z,41.95
2018-08-06T15:59:07.183Z,42.01
2018-08-06T16:01:39.383Z,42.20
2018-08-06T16:04:12.927Z,41.42
2018-08-06T16:06:42.983Z,41.41
2018-08-06T16:09:35.985Z,39.84
2018-08-06T16:12:10.041Z,38.27
2018-08-06T16:15:17.494Z,37.03
2018-08-06T16:17:50.306Z,36.19
2018-08-06T16:20:20.193Z,35.92
2018-08-06T16:22:51.752Z,35.67
2018-08-06T16:25:23.742Z,35.28
2018-08-06T16:27:59.264Z,35.25
2018-08-06T16:30:31.940Z,34.95
2018-08-06T16:33:02.630Z,34.49
2018-08-06T16:35:43.258Z,33.98
2018-08-06T16:38:13.843Z,33.63
2018-08-06T16:40:45.655Z,33.42
2018-08-06T16:43:17.258Z,33.46
2018-08-06T16:46:29.191Z,33.53
2018-08-06T16:49:00.103Z,33.58
2018-08-06T16:51:54.420Z,33.61
2018-08-06T16:54:25.270Z,33.51
2018-08-06T16:56:55.528Z,33.44
2018-08-06T16:59:26.013Z,33.47
2018-08-06T17:04:54.339Z,33.29
2018-08-06T17:07:24.937Z,33.13
2018-08-06T17:09:55.680Z,33.12
2018-08-06T17:12:26.716Z,32.90
2018-08-06T17:15:09.772Z,32.85
2018-08-06T17:18:04.964Z,32.68
2018-08-06T17:20:36.225Z,32.54
2018-08-06T17:23:07.356Z,32.54
2018-08-06T17:25:46.802Z,32.32
2018-08-06T17:28:18.264Z,32.31
2018-08-06T17:30:49.500Z,31.97
2018-08-06T17:36:02.304Z,31.55
2018-08-06T17:38:52.588Z,31.41
2018-08-06T17:41:32.189Z,31.34
2018-08-06T17:44:07.940Z,31.16
2018-08-06T17:47:35.186Z,31.09
2018-08-06T17:50:26.921Z,30.97
2018-08-06T17:52:57.286Z,30.86
2018-08-06T17:55:28.357Z,30.76
2018-08-06T17:57:58.572Z,30.65
2018-08-06T18:00:28.685Z,30.51
2018-08-06T18:02:59.095Z,30.30
2018-08-06T18:05:29.082Z,30.18
2018-08-06T18:08:00.084Z,30.10
2018-08-06T18:10:30.599Z,30.09
2018-08-06T18:13:01.395Z,30.12
2018-08-06T18:15:31.560Z,30.05
2018-08-06T18:18:01.635Z,30.08
2018-08-06T18:20:34.285Z,30.02
2018-08-06T18:23:04.517Z,29.99
2018-08-06T18:25:34.906Z,29.93
2018-08-06T18:28:04.930Z,29.77
2018-08-06T18:30:39.467Z,29.70
2018-08-06T18:33:32.747Z,29.61
2018-08-06T18:36:03.142Z,29.47
2018-08-06T18:38:37.231Z,29.43
2018-08-06T18:41:07.362Z,29.34
2018-08-06T18:43:37.664Z,29.32
2018-08-06T18:46:08.132Z,29.22
2018-08-06T18:48:38.719Z,29.16
2018-08-06T18:51:09.341Z,29.09
2018-08-06T18:53:39.629Z,29.03
2018-08-06T18:56:10.025Z,28.93
2018-08-06T18:58:40.876Z,28.84
2018-08-06T19:01:11.612Z,28.81
2018-08-06T19:03:43.158Z,28.83
2018-08-06T19:06:13.673Z,28.70
2018-08-06T19:08:43.989Z,28.66
2018-08-06T19:11:14.628Z,28.54
2018-08-06T19:13:50.221Z,28.50
2018-08-06T19:16:20.504Z,28.47
2018-08-06T19:18:55.696Z,28.04
2018-08-06T19:21:48.590Z,27.42
2018-08-06T19:24:29.298Z,25.62
2018-08-06T19:26:59.525Z,25.27
2018-08-06T19:29:31.012Z,24.75
2018-08-06T19:32:01.702Z,24.68
2018-08-06T19:37:34.604Z,24.47
2018-08-06T19:40:05.539Z,23.92
2018-08-06T19:42:40.641Z,23.08
2018-08-06T19:45:11.082Z,22.57
2018-08-06T19:47:44.223Z,22.21
2018-08-06T19:53:03.735Z,22.11
2018-08-06T19:55:40.898Z,21.96
2018-08-06T19:58:11.363Z,22.08
2018-08-06T20:00:42.336Z,22.14
2018-08-06T20:03:12.887Z,22.20
2018-08-06T20:05:43.677Z,22.31
2018-08-06T20:11:13.563Z,22.46
2018-08-06T20:13:44.647Z,22.47
2018-08-06T20:16:17.567Z,22.46
2018-08-06T20:18:48.512Z,22.50
2018-08-06T20:21:20.475Z,22.57
2018-08-06T20:23:51.882Z,22.77
2018-08-06T20:26:27.236Z,22.94
2018-08-06T20:32:01.508Z,23.24
2018-08-06T20:34:32.273Z,23.22
2018-08-06T20:37:05.753Z,23.16
2018-08-06T20:39:40.955Z,23.15
2018-08-06T20:42:11.700Z,23.18
2018-08-06T20:44:43.363Z,23.22
2018-08-06T20:47:14.232Z,23.27
2018-08-06T20:49:45.872Z,23.29
2018-08-06T20:52:16.422Z,23.42
2018-08-06T20:54:46.711Z,23.53
2018-08-06T20:57:17.859Z,23.62
2018-08-06T20:59:50.125Z,23.67
2018-08-06T21:02:20.928Z,23.63
2018-08-06T21:04:52.036Z,23.65
2018-08-06T21:07:24.527Z,23.75
2018-08-06T21:09:55.255Z,23.69
2018-08-06T21:12:25.934Z,23.71
2018-08-06T21:14:56.313Z,23.72
2018-08-06T21:17:33.952Z,23.82
2018-08-06T21:22:57.076Z,23.83
2018-08-06T21:25:35.826Z,23.83
2018-08-06T21:28:06.837Z,23.85
2018-08-06T21:30:38.319Z,23.79
2018-08-06T21:33:09.023Z,23.81
2018-08-06T21:35:39.431Z,23.70
2018-08-06T21:38:10.392Z,23.67
2018-08-06T21:40:40.950Z,23.66
2018-08-06T21:43:11.720Z,23.74
2018-08-06T21:45:44.696Z,23.73
2018-08-06T21:48:15.382Z,23.75
2018-08-06T21:50:46.672Z,23.68
2018-08-06T21:53:17.651Z,23.62
2018-08-06T21:55:48.046Z,23.61
2018-08-06T21:58:18.823Z,23.53
2018-08-06T22:00:49.337Z,23.45
2018-08-06T22:03:20.392Z,23.50
2018-08-06T22:05:50.594Z,23.34
2018-08-06T22:08:20.707Z,23.28
2018-08-06T22:11:16.933Z,23.21
2018-08-06T22:13:48.385Z,23.20
2018-08-06T22:16:19.014Z,23.16
2018-08-06T22:18:50.746Z,23.09
2018-08-06T22:21:21.701Z,23.05
2018-08-06T22:23:52.441Z,22.98
2018-08-06T22:26:22.756Z,22.94
2018-08-06T22:28:53.553Z,22.93
2018-08-06T22:31:24.034Z,22.98
2018-08-06T22:33:54.944Z,22.96
2018-08-06T22:36:25.974Z,22.95
2018-08-06T22:38:56.822Z,22.95
2018-08-06T22:41:27.758Z,22.94
2018-08-06T22:43:58.712Z,22.94
2018-08-06T22:46:29.297Z,22.89
2018-08-06T22:48:59.901Z,22.79
2018-08-06T22:51:30.591Z,22.74
2018-08-06T22:54:01.579Z,22.72
2018-08-06T22:56:32.708Z,22.72
2018-08-06T22:59:03.980Z,22.69
2018-08-06T23:01:35.534Z,22.65
2018-08-06T23:04:06.071Z,22.58
2018-08-06T23:06:36.176Z,22.51
2018-08-06T23:09:09.669Z,22.43
2018-08-06T23:11:40.153Z,22.35
2018-08-06T23:14:10.489Z,22.39
2018-08-06T23:16:40.471Z,22.37
2018-08-06T23:19:15.365Z,22.39
2018-08-06T23:21:45.619Z,22.39
2018-08-06T23:24:16.130Z,22.42
2018-08-06T23:26:46.638Z,22.43
2018-08-06T23:29:17.912Z,22.29
2018-08-06T23:31:49.031Z,22.17
2018-08-06T23:34:19.497Z,22.05
2018-08-06T23:36:49.414Z,21.93
2018-08-06T23:39:19.936Z,21.95
2018-08-06T23:42:00.938Z,21.90
2018-08-06T23:44:31.096Z,21.84
2018-08-06T23:47:06.325Z,21.81
2018-08-06T23:49:40.740Z,21.75
2018-08-06T23:52:13.871Z,21.75
2018-08-06T23:54:47.495Z,21.77
2018-08-06T23:57:27.551Z,21.65
2018-08-06T23:59:58.891Z,21.59
